Noti, Oregon
Current Conditions -  °F | °C
As of 6:21 PM on Saturday 20 Dec 2014 (Local Time) from KEUG Reporting Station
Light Rain Light Rain  
Wind Chill: 55°   Ceiling: 8000
Heat Index: 55°   Visibility: 8mi
Dew Point: 53°   Wind: 14mph
Humidity: 93%   Direction: 180°S
Pressure: 29.79"   Gusts: NA
Location:  44.06°N, 123.45°W
Report Text: KEUG 210221Z 18012KT 8SM -RA SCT046 OVC080 13/12 A2979 RMK AO2 P0005 T01280117
Loading
Personal Weather Stations






























Interactive Weather Map New forecast layout! Learn more

10-Day Weather Forecast

Advertisements
Track Severe Weather on mobile